createdAt,value
2023-04-15T00:01:02.854Z,10.20
2023-04-15T00:03:35.102Z,10.52
2023-04-15T00:06:04.990Z,9.88
2023-04-15T00:08:34.532Z,9.05
2023-04-15T00:11:06.091Z,10.27
2023-04-15T00:13:36.064Z,10.20
2023-04-15T00:16:09.290Z,10.52
2023-04-15T00:18:39.443Z,9.50
2023-04-15T00:21:09.367Z,9.63
2023-04-15T00:23:39.241Z,7.15
2023-04-15T00:26:08.821Z,9.93
2023-04-15T00:28:38.624Z,8.05
2023-04-15T00:31:11.163Z,9.07
2023-04-15T00:33:40.800Z,8.80
2023-04-15T00:36:11.362Z,8.25
2023-04-15T00:38:42.222Z,9.93
2023-04-15T00:41:13.726Z,9.57
2023-04-15T00:43:43.570Z,7.47
2023-04-15T00:46:17.807Z,7.40
2023-04-15T00:48:47.710Z,7.45
2023-04-15T00:51:17.797Z,10.18
2023-04-15T00:53:47.348Z,9.90
2023-04-15T00:56:17.244Z,9.00
2023-04-15T00:58:46.872Z,8.02
2023-04-15T01:01:21.575Z,8.18
2023-04-15T01:03:52.576Z,9.45
2023-04-15T01:06:22.454Z,8.88
2023-04-15T01:08:52.222Z,7.53
2023-04-15T01:11:22.355Z,9.27
2023-04-15T01:13:52.129Z,9.18
2023-04-15T01:16:24.447Z,9.55
2023-04-15T01:18:54.600Z,8.50
2023-04-15T01:21:24.959Z,8.35
2023-04-15T01:23:56.179Z,10.00
2023-04-15T01:26:29.152Z,9.63
2023-04-15T01:28:58.789Z,9.68
2023-04-15T01:31:28.573Z,8.55
2023-04-15T01:33:58.716Z,10.23
2023-04-15T01:36:28.285Z,6.90
2023-04-15T01:38:59.167Z,7.85
2023-04-15T01:41:31.990Z,7.68
2023-04-15T01:44:01.809Z,10.00
2023-04-15T01:46:31.572Z,5.35
2023-04-15T01:49:01.348Z,8.25
2023-04-15T01:51:31.209Z,9.43
2023-04-15T01:54:00.909Z,6.65
2023-04-15T01:56:33.694Z,7.95
2023-04-15T01:59:03.920Z,7.97
2023-04-15T02:01:33.522Z,6.88
2023-04-15T02:04:03.533Z,8.13
2023-04-15T02:06:33.520Z,8.73
2023-04-15T02:09:04.458Z,4.80
2023-04-15T02:11:37.360Z,6.97
2023-04-15T02:14:07.169Z,9.43
2023-04-15T02:16:37.000Z,9.23
2023-04-15T02:19:06.710Z,9.15
2023-04-15T02:21:36.311Z,6.35
2023-04-15T02:24:05.928Z,7.22
2023-04-15T02:26:38.093Z,8.90
2023-04-15T02:29:07.943Z,8.18
2023-04-15T02:31:40.784Z,7.07
2023-04-15T02:34:10.427Z,6.03
2023-04-15T02:36:40.898Z,9.65
2023-04-15T02:39:10.435Z,7.80
2023-04-15T02:41:43.980Z,8.45
2023-04-15T02:44:13.543Z,8.45
2023-04-15T02:46:43.478Z,8.82
2023-04-15T02:49:12.994Z,10.07
2023-04-15T02:51:42.480Z,9.57
2023-04-15T02:54:12.154Z,7.60
2023-04-15T02:56:44.242Z,7.30
2023-04-15T02:59:13.970Z,9.00
2023-04-15T03:01:43.941Z,9.77
2023-04-15T03:04:14.562Z,9.95
2023-04-15T03:06:44.283Z,10.90
2023-04-15T03:09:13.822Z,10.07
2023-04-15T03:11:45.915Z,10.73
2023-04-15T03:14:15.695Z,10.88
2023-04-15T03:16:45.229Z,10.65
2023-04-15T03:19:14.758Z,8.52
2023-04-15T03:21:44.361Z,9.65
2023-04-15T03:24:16.591Z,8.68
2023-04-15T03:26:49.453Z,9.38
2023-04-15T03:29:19.011Z,7.10
2023-04-15T03:31:48.578Z,12.18
2023-04-15T03:34:18.082Z,7.22
2023-04-15T03:36:47.654Z,6.50
2023-04-15T03:39:17.377Z,8.68
2023-04-15T03:41:49.490Z,10.25
2023-04-15T03:44:19.959Z,9.43
2023-04-15T03:46:49.593Z,9.90
2023-04-15T03:49:19.519Z,8.93
2023-04-15T03:51:49.308Z,6.28
2023-04-15T03:54:18.866Z,10.82
2023-04-15T03:56:51.003Z,9.77
2023-04-15T03:59:20.614Z,9.02
2023-04-15T04:01:50.208Z,9.35
2023-04-15T04:04:19.973Z,6.57
2023-04-15T04:06:49.858Z,9.05
2023-04-15T04:09:19.384Z,10.00
2023-04-15T04:11:51.581Z,7.38
2023-04-15T04:14:21.154Z,7.30
2023-04-15T04:16:51.074Z,9.63
2023-04-15T04:19:21.001Z,10.57
2023-04-15T04:21:50.557Z,9.25
2023-04-15T04:24:20.122Z,6.38
2023-04-15T04:26:52.282Z,10.35
2023-04-15T04:29:22.024Z,5.50
2023-04-15T04:31:52.016Z,8.57
2023-04-15T04:34:21.663Z,9.75
2023-04-15T04:36:51.271Z,7.93
2023-04-15T04:39:20.792Z,8.15
2023-04-15T04:41:53.046Z,4.97
2023-04-15T04:44:22.620Z,7.28
2023-04-15T04:46:52.168Z,5.50
2023-04-15T04:49:21.741Z,6.88
2023-04-15T04:51:51.660Z,6.20
2023-04-15T04:54:21.454Z,4.25
2023-04-15T04:56:53.584Z,5.03
2023-04-15T04:59:23.107Z,5.38
2023-04-15T05:01:52.846Z,4.30
2023-04-15T05:04:22.371Z,4.72
2023-04-15T05:06:51.915Z,4.47
2023-04-15T05:09:21.579Z,4.82
2023-04-15T05:11:53.698Z,5.20
2023-04-15T05:14:23.457Z,6.20
2023-04-15T05:16:53.269Z,4.20
2023-04-15T05:19:22.863Z,3.97
2023-04-15T05:21:52.420Z,4.07
2023-04-15T05:24:22.578Z,5.25
2023-04-15T05:26:54.695Z,3.97
2023-04-15T05:29:24.263Z,3.97
2023-04-15T05:31:53.797Z,4.53
2023-04-15T05:34:23.383Z,3.03
2023-04-15T05:36:52.952Z,4.53
2023-04-15T05:39:29.455Z,4.10
2023-04-15T05:42:01.694Z,3.55
2023-04-15T05:44:31.238Z,4.57
2023-04-15T05:47:00.961Z,4.82
2023-04-15T05:49:30.879Z,5.07
2023-04-15T05:52:00.916Z,4.28
2023-04-15T05:54:30.655Z,4.18
2023-04-15T05:57:03.020Z,3.25
2023-04-15T05:59:33.064Z,3.95
2023-04-15T06:02:02.828Z,4.20
2023-04-15T06:04:32.933Z,3.90
2023-04-15T06:07:02.594Z,3.00
2023-04-15T06:09:32.458Z,2.30
2023-04-15T06:12:04.823Z,3.00
2023-04-15T06:14:34.636Z,2.50
2023-04-15T06:17:04.351Z,2.50
2023-04-15T06:19:33.932Z,2.30
2023-04-15T06:22:03.610Z,2.50
2023-04-15T06:24:33.382Z,2.45
2023-04-15T06:27:05.539Z,2.63
2023-04-15T06:29:35.124Z,2.83
2023-04-15T06:32:04.712Z,2.63
2023-04-15T06:34:34.262Z,2.30
2023-04-15T06:37:05.778Z,2.03
2023-04-15T06:39:35.989Z,2.67
2023-04-15T06:42:08.328Z,2.60
2023-04-15T06:44:37.855Z,2.80
2023-04-15T06:47:07.425Z,2.30
2023-04-15T06:49:36.980Z,2.78
2023-04-15T06:52:06.512Z,2.50
2023-04-15T06:54:36.042Z,2.13
2023-04-15T06:57:09.481Z,2.15
2023-04-15T06:59:39.025Z,2.47
2023-04-15T07:02:08.605Z,2.53
2023-04-15T07:04:38.277Z,2.17
2023-04-15T07:07:08.394Z,2.30
2023-04-15T07:09:38.647Z,2.20
2023-04-15T07:12:10.812Z,2.10
2023-04-15T07:14:40.423Z,2.40
2023-04-15T07:17:10.007Z,2.10
2023-04-15T07:19:39.535Z,2.10
2023-04-15T07:22:09.353Z,2.40
2023-04-15T07:24:38.878Z,2.30
2023-04-15T07:27:11.086Z,2.42
2023-04-15T07:29:40.617Z,2.30
2023-04-15T07:32:10.693Z,2.10
2023-04-15T07:34:41.684Z,2.28
2023-04-15T07:37:11.440Z,2.33
2023-04-15T07:39:41.209Z,2.25
2023-04-15T07:42:13.415Z,2.75
2023-04-15T07:44:43.039Z,2.22
2023-04-15T07:47:12.603Z,2.03
2023-04-15T07:49:42.143Z,2.40
2023-04-15T07:52:11.764Z,2.30
2023-04-15T07:54:41.308Z,2.60
2023-04-15T07:57:13.407Z,1.95
2023-04-15T07:59:42.951Z,2.25
2023-04-15T08:02:13.785Z,2.22
2023-04-15T08:04:43.385Z,2.30
2023-04-15T08:07:13.162Z,2.28
2023-04-15T08:09:42.683Z,2.20
2023-04-15T08:12:15.281Z,2.35
2023-04-15T08:14:44.888Z,2.03
2023-04-15T08:17:14.418Z,2.25
2023-04-15T08:19:48.427Z,2.40
2023-04-15T08:22:19.637Z,2.38
2023-04-15T08:24:50.215Z,1.48
2023-04-15T08:27:22.457Z,1.88
2023-04-15T08:29:51.983Z,2.20
2023-04-15T08:32:21.859Z,2.28
2023-04-15T08:34:51.538Z,2.20
2023-04-15T08:37:21.420Z,1.83
2023-04-15T08:39:50.923Z,1.77
2023-04-15T08:42:30.622Z,1.83
2023-04-15T08:45:02.826Z,2.10
2023-04-15T08:47:34.587Z,1.70
2023-04-15T08:50:06.490Z,1.88
2023-04-15T08:52:36.542Z,1.90
2023-04-15T08:55:07.101Z,1.85
2023-04-15T08:57:40.606Z,1.70
2023-04-15T09:00:12.686Z,1.80
2023-04-15T09:02:42.832Z,1.85
2023-04-15T09:05:13.098Z,1.90
2023-04-15T09:07:42.713Z,1.70
2023-04-15T09:10:13.428Z,1.45
2023-04-15T09:12:45.629Z,2.08
2023-04-15T09:15:16.560Z,1.98
2023-04-15T09:17:46.886Z,2.03
2023-04-15T09:20:18.911Z,1.90
2023-04-15T09:22:50.383Z,1.70
2023-04-15T09:25:34.962Z,1.50
2023-04-15T09:28:07.563Z,1.45
2023-04-15T09:30:37.584Z,1.60
2023-04-15T09:33:08.860Z,2.08
2023-04-15T09:35:38.849Z,1.80
2023-04-15T09:38:10.939Z,1.65
2023-04-15T09:40:42.137Z,1.50
2023-04-15T09:43:14.692Z,1.27
2023-04-15T09:45:51.481Z,1.50
2023-04-15T09:48:23.768Z,1.70
2023-04-15T09:50:54.172Z,2.08
2023-04-15T09:53:26.077Z,1.70
2023-04-15T09:55:56.888Z,1.60
2023-04-15T09:58:30.638Z,1.50
2023-04-15T10:01:01.991Z,1.65
2023-04-15T10:03:33.389Z,1.83
2023-04-15T10:06:04.278Z,1.70
2023-04-15T10:08:35.715Z,1.40
2023-04-15T10:11:05.954Z,2.00
2023-04-15T10:13:40.117Z,1.67
2023-04-15T10:16:13.531Z,1.63
2023-04-15T10:18:46.689Z,1.50
2023-04-15T10:21:18.944Z,1.77
2023-04-15T10:23:48.604Z,1.60
2023-04-15T10:26:18.791Z,2.05
2023-04-15T10:28:51.388Z,1.45
2023-04-15T10:31:21.275Z,1.83
2023-04-15T10:33:52.521Z,1.90
2023-04-15T10:36:23.222Z,1.67
2023-04-15T10:38:52.816Z,2.03
2023-04-15T10:41:23.918Z,1.77
2023-04-15T10:43:58.363Z,1.55
2023-04-15T10:46:39.555Z,1.42
2023-04-15T10:49:13.818Z,1.88
2023-04-15T10:51:44.928Z,1.40
2023-04-15T10:54:18.286Z,1.48
2023-04-15T10:56:48.927Z,1.90
2023-04-15T10:59:22.390Z,1.90
2023-04-15T11:02:00.398Z,1.63
2023-04-15T11:04:54.549Z,1.50
2023-04-15T11:07:37.961Z,1.50
2023-04-15T11:10:34.889Z,1.13
2023-04-15T11:13:06.691Z,1.38
2023-04-15T11:15:41.184Z,1.63
2023-04-15T11:18:13.874Z,1.80
2023-04-15T11:20:45.537Z,1.60
2023-04-15T11:23:16.140Z,1.85
2023-04-15T11:25:46.850Z,2.00
2023-04-15T11:28:16.734Z,1.58
2023-04-15T11:30:49.643Z,1.70
2023-04-15T11:33:19.187Z,1.50
2023-04-15T11:35:48.745Z,1.80
2023-04-15T11:38:19.599Z,1.38
2023-04-15T11:40:49.461Z,1.35
2023-04-15T11:43:21.690Z,1.65
2023-04-15T11:45:57.015Z,1.67
2023-04-15T11:48:28.378Z,1.88
2023-04-15T11:50:59.279Z,1.90
2023-04-15T11:53:40.828Z,2.20
2023-04-15T11:56:11.845Z,2.20
2023-04-15T11:58:43.523Z,1.80
2023-04-15T12:01:16.010Z,2.08
2023-04-15T12:03:48.597Z,2.03
2023-04-15T12:06:20.792Z,2.00
2023-04-15T12:09:00.801Z,2.13
2023-04-15T12:11:32.611Z,2.08
2023-04-15T12:14:06.292Z,1.90
2023-04-15T12:16:48.135Z,1.90
2023-04-15T12:19:22.393Z,2.00
2023-04-15T12:21:52.559Z,1.85
2023-04-15T12:24:25.511Z,1.83
2023-04-15T12:26:57.406Z,1.90
2023-04-15T12:29:29.826Z,2.20
2023-04-15T12:32:06.889Z,1.80
2023-04-15T12:34:39.243Z,2.40
2023-04-15T12:37:12.322Z,2.03
2023-04-15T12:39:43.915Z,2.00
2023-04-15T12:42:14.316Z,1.92
2023-04-15T12:44:44.144Z,2.00
2023-04-15T12:47:16.369Z,2.20
2023-04-15T12:49:45.931Z,2.05
2023-04-15T12:52:16.822Z,2.10
2023-04-15T12:54:46.466Z,2.22
2023-04-15T12:57:16.003Z,2.20
2023-04-15T12:59:45.707Z,2.00
2023-04-15T13:02:18.139Z,2.10
2023-04-15T13:04:47.910Z,2.47
2023-04-15T13:07:17.551Z,2.10
2023-04-15T13:09:47.079Z,2.20
2023-04-15T13:12:17.041Z,1.95
2023-04-15T13:14:46.670Z,2.55
2023-04-15T13:17:20.617Z,2.30
2023-04-15T13:19:50.268Z,2.10
2023-04-15T13:22:19.814Z,2.20
2023-04-15T13:24:49.767Z,2.00
2023-04-15T13:27:19.302Z,2.00
2023-04-15T13:29:48.873Z,2.00
2023-04-15T13:32:21.018Z,1.88
2023-04-15T13:34:50.853Z,2.10
2023-04-15T13:37:21.177Z,2.30
2023-04-15T13:39:50.702Z,2.08
2023-04-15T13:42:20.301Z,1.90
2023-04-15T13:44:49.925Z,2.17
2023-04-15T13:47:22.859Z,2.22
2023-04-15T13:49:53.156Z,1.92
2023-04-15T13:52:22.710Z,1.98
2023-04-15T13:55:10.318Z,1.85
2023-04-15T13:57:41.956Z,2.05
2023-04-15T14:00:12.880Z,2.20
2023-04-15T14:02:45.150Z,2.10
2023-04-15T14:05:15.188Z,2.20
2023-04-15T14:07:45.011Z,1.80
2023-04-15T14:10:14.862Z,2.10
2023-04-15T14:12:44.442Z,2.15
2023-04-15T14:15:14.328Z,2.20
2023-04-15T14:17:46.585Z,2.10
2023-04-15T14:20:17.141Z,2.40
2023-04-15T14:22:46.988Z,2.40
2023-04-15T14:25:30.502Z,2.15
2023-04-15T14:28:02.719Z,2.22
2023-04-15T14:30:32.556Z,2.25
2023-04-15T14:33:04.887Z,1.98
2023-04-15T14:35:34.567Z,2.00
2023-04-15T14:38:04.155Z,2.30
2023-04-15T14:40:33.720Z,2.10
2023-04-15T14:43:03.363Z,2.00
2023-04-15T14:45:33.446Z,2.30
2023-04-15T14:48:06.656Z,2.08
2023-04-15T14:50:36.339Z,2.28
2023-04-15T14:53:05.882Z,2.30
2023-04-15T14:55:35.441Z,2.05
2023-04-15T14:58:04.982Z,2.58
2023-04-15T15:00:34.687Z,2.40
2023-04-15T15:03:12.820Z,2.47
2023-04-15T15:05:42.833Z,2.40
2023-04-15T15:08:13.156Z,2.25
2023-04-15T15:10:48.987Z,2.20
2023-04-15T15:13:20.887Z,2.50
2023-04-15T15:15:51.902Z,2.17
2023-04-15T15:18:25.691Z,2.10
2023-04-15T15:20:55.278Z,2.30
2023-04-15T15:23:24.822Z,2.35
2023-04-15T15:25:54.657Z,2.30
2023-04-15T15:28:24.592Z,2.50
2023-04-15T15:30:54.244Z,2.30
2023-04-15T15:33:27.631Z,2.40
2023-04-15T15:35:58.190Z,2.40
2023-04-15T15:38:27.753Z,2.38
2023-04-15T15:40:57.289Z,2.20
2023-04-15T15:43:26.846Z,2.20
2023-04-15T15:45:56.449Z,2.38
2023-04-15T15:48:28.709Z,2.30
2023-04-15T15:50:58.314Z,2.25
2023-04-15T15:53:27.871Z,2.60
2023-04-15T15:55:57.524Z,2.50
2023-04-15T15:58:27.179Z,2.80
2023-04-15T16:00:56.882Z,2.30
2023-04-15T16:03:29.196Z,2.45
2023-04-15T16:05:58.886Z,2.47
2023-04-15T16:08:28.405Z,2.50
2023-04-15T16:10:57.996Z,2.35
2023-04-15T16:13:27.628Z,2.45
2023-04-15T16:15:57.234Z,2.30
2023-04-15T16:18:29.543Z,2.40
2023-04-15T16:20:59.260Z,2.22
2023-04-15T16:23:28.989Z,2.30
2023-04-15T16:25:58.527Z,2.50
2023-04-15T16:28:28.080Z,2.38
2023-04-15T16:30:58.084Z,2.60
2023-04-15T16:33:30.254Z,2.55
2023-04-15T16:35:59.785Z,2.80
2023-04-15T16:38:29.360Z,2.90
2023-04-15T16:41:01.683Z,3.08
2023-04-15T16:43:31.848Z,3.20
2023-04-15T16:46:01.697Z,2.88
2023-04-15T16:48:33.928Z,2.95
2023-04-15T16:51:03.682Z,2.60
2023-04-15T16:53:33.223Z,2.47
2023-04-15T16:56:02.753Z,2.47
2023-04-15T16:58:32.420Z,2.60
2023-04-15T17:01:02.235Z,2.28
2023-04-15T17:03:34.505Z,2.90
2023-04-15T17:06:04.320Z,2.85
2023-04-15T17:08:36.743Z,3.10
2023-04-15T17:11:06.594Z,3.00
2023-04-15T17:13:36.389Z,3.15
2023-04-15T17:16:06.111Z,2.83
2023-04-15T17:18:38.309Z,2.90
2023-04-15T17:21:08.549Z,3.17
2023-04-15T17:23:38.084Z,3.05
2023-04-15T17:26:07.759Z,3.40
2023-04-15T17:28:37.422Z,3.08
2023-04-15T17:31:08.569Z,3.00
2023-04-15T17:34:00.413Z,3.40
2023-04-15T17:36:31.080Z,3.35
2023-04-15T17:39:00.644Z,3.30
2023-04-15T17:41:30.196Z,3.53
2023-04-15T17:43:59.809Z,3.22
2023-04-15T17:46:29.942Z,3.60
2023-04-15T17:49:02.095Z,4.20
2023-04-15T17:51:31.941Z,4.38
2023-04-15T17:54:01.464Z,5.20
2023-04-15T17:56:31.442Z,9.18
2023-04-15T17:59:02.644Z,11.50
2023-04-15T18:01:32.458Z,6.75
2023-04-15T18:04:04.958Z,5.47
2023-04-15T18:06:35.104Z,4.93
2023-04-15T18:09:04.847Z,5.30
2023-04-15T18:11:36.035Z,6.55
2023-04-15T18:14:06.445Z,6.35
2023-04-15T18:16:36.416Z,6.60
2023-04-15T18:19:08.643Z,7.57
2023-04-15T18:21:38.156Z,7.97
2023-04-15T18:24:08.294Z,7.05
2023-04-15T18:26:38.072Z,6.95
2023-04-15T18:29:07.605Z,7.70
2023-04-15T18:31:37.222Z,9.00
2023-04-15T18:34:09.366Z,7.82
2023-04-15T18:36:38.979Z,8.55
2023-04-15T18:39:08.620Z,8.00
2023-04-15T18:41:38.198Z,8.70
2023-04-15T18:44:07.791Z,9.43
2023-04-15T18:46:37.401Z,9.52
2023-04-15T18:49:09.551Z,10.25
2023-04-15T18:51:39.066Z,9.35
2023-04-15T18:54:08.652Z,8.50
2023-04-15T18:56:38.310Z,8.80
2023-04-15T18:59:27.598Z,10.25
2023-04-15T19:01:57.507Z,11.45
2023-04-15T19:04:30.731Z,10.77
2023-04-15T19:07:00.870Z,10.65
2023-04-15T19:09:31.468Z,11.48
2023-04-15T19:12:02.598Z,10.35
2023-04-15T19:14:32.330Z,10.82
2023-04-15T19:17:01.873Z,12.70
2023-04-15T19:19:34.367Z,12.82
2023-04-15T19:22:03.967Z,10.48
2023-04-15T19:24:34.208Z,11.63
2023-04-15T19:27:04.525Z,10.80
2023-04-15T19:29:34.412Z,12.10
2023-04-15T19:32:04.093Z,12.98
2023-04-15T19:34:36.383Z,10.70
2023-04-15T19:37:05.969Z,10.38
2023-04-15T19:39:35.620Z,9.82
2023-04-15T19:42:05.528Z,9.65
2023-04-15T19:44:35.192Z,9.30
2023-04-15T19:47:04.761Z,10.00
2023-04-15T19:49:36.860Z,12.32
2023-04-15T19:52:07.524Z,12.48
2023-04-15T19:54:37.274Z,12.50
2023-04-15T19:57:07.161Z,14.02
2023-04-15T19:59:37.907Z,10.18
2023-04-15T20:02:07.526Z,11.15
2023-04-15T20:04:39.867Z,10.32
2023-04-15T20:07:10.253Z,10.60
2023-04-15T20:09:39.808Z,12.05
2023-04-15T20:12:49.321Z,11.35
2023-04-15T20:14:58.981Z,10.88
2023-04-15T20:17:28.575Z,11.57
2023-04-15T20:20:00.724Z,11.05
2023-04-15T20:22:30.244Z,12.18
2023-04-15T20:24:59.809Z,14.07
2023-04-15T20:27:29.398Z,12.77
2023-04-15T20:29:58.960Z,15.63
2023-04-15T20:32:28.768Z,14.35
2023-04-15T20:35:00.942Z,12.77
2023-04-15T20:37:30.948Z,13.88
2023-04-15T20:40:00.665Z,13.80
2023-04-15T20:42:30.371Z,14.23
2023-04-15T20:44:59.894Z,12.45
2023-04-15T20:47:29.655Z,13.18
2023-04-15T20:50:01.916Z,13.18
2023-04-15T20:52:31.511Z,11.77
2023-04-15T20:55:01.056Z,11.50
2023-04-15T20:57:30.660Z,11.65
2023-04-15T21:00:00.187Z,12.68
2023-04-15T21:02:29.824Z,11.77
2023-04-15T21:05:02.226Z,12.73
2023-04-15T21:07:31.828Z,11.50
2023-04-15T21:10:01.470Z,11.85
2023-04-15T21:12:31.253Z,11.07
2023-04-15T21:15:00.862Z,11.95
2023-04-15T21:17:34.030Z,12.50
2023-04-15T21:20:06.653Z,12.60
2023-04-15T21:22:36.211Z,13.90
2023-04-15T21:25:05.919Z,13.75
2023-04-15T21:27:35.496Z,14.25
2023-04-15T21:30:05.144Z,13.13
2023-04-15T21:32:34.759Z,13.38
2023-04-15T21:35:07.739Z,13.27
2023-04-15T21:37:37.743Z,13.60
2023-04-15T21:40:08.988Z,14.80
2023-04-15T21:42:38.856Z,14.43
2023-04-15T21:45:09.556Z,13.63
2023-04-15T21:48:01.232Z,15.18
2023-04-15T21:50:31.294Z,14.85
2023-04-15T21:53:02.130Z,15.30
2023-04-15T21:55:31.822Z,16.45
2023-04-15T21:58:01.379Z,15.52
2023-04-15T22:00:31.142Z,15.57
2023-04-15T22:03:00.841Z,16.70
2023-04-15T22:05:33.367Z,16.00
2023-04-15T22:08:04.826Z,15.82
2023-04-15T22:10:34.478Z,15.10
2023-04-15T22:13:07.236Z,16.10
2023-04-15T22:15:37.243Z,16.33
2023-04-15T22:18:06.842Z,16.55
2023-04-15T22:20:38.956Z,15.60
2023-04-15T22:23:09.992Z,17.13
2023-04-15T22:25:40.653Z,16.85
2023-04-15T22:28:10.684Z,17.33
2023-04-15T22:30:40.798Z,17.50
2023-04-15T22:33:11.994Z,16.90
2023-04-15T22:35:44.119Z,17.27
2023-04-15T22:38:13.796Z,17.30
2023-04-15T22:40:43.339Z,17.85
2023-04-15T22:43:12.864Z,19.40
2023-04-15T22:45:42.455Z,20.05
2023-04-15T22:48:12.113Z,20.55
2023-04-15T22:50:44.246Z,20.58
2023-04-15T22:53:13.805Z,21.10
2023-04-15T22:55:46.969Z,19.52
2023-04-15T22:58:17.285Z,18.88
2023-04-15T23:00:47.226Z,19.58
2023-04-15T23:03:16.831Z,20.00
2023-04-15T23:05:49.819Z,18.23
2023-04-15T23:08:19.320Z,18.55
2023-04-15T23:10:50.595Z,17.88
2023-04-15T23:13:20.163Z,17.88
2023-04-15T23:15:49.673Z,16.85
2023-04-15T23:18:19.174Z,18.35
2023-04-15T23:20:51.402Z,17.95
2023-04-15T23:23:20.947Z,18.38
2023-04-15T23:25:50.699Z,18.63
2023-04-15T23:28:20.210Z,17.83
2023-04-15T23:30:49.777Z,18.00
2023-04-15T23:33:19.310Z,18.60
2023-04-15T23:35:51.618Z,18.77
2023-04-15T23:38:21.168Z,19.00
2023-04-15T23:40:50.758Z,20.30
2023-04-15T23:43:20.471Z,19.98
2023-04-15T23:45:50.053Z,18.75
2023-04-15T23:48:19.575Z,18.60
2023-04-15T23:50:51.760Z,19.10
2023-04-15T23:53:21.344Z,20.10
2023-04-15T23:55:51.629Z,19.90
2023-04-15T23:58:21.164Z,19.20
